createdAt,value
2018-12-08T00:02:31.314Z,9.5
2018-12-08T00:08:26.322Z,8.85
2018-12-08T00:14:21.313Z,8.97
2018-12-08T00:20:16.331Z,7.82
2018-12-08T00:26:11.337Z,6.93
2018-12-08T00:32:06.297Z,8.45
2018-12-08T00:38:01.354Z,7.98
2018-12-08T00:43:56.301Z,6.31
2018-12-08T00:49:51.321Z,5.4
2018-12-08T00:55:46.371Z,3.81
2018-12-08T01:01:41.420Z,4.15
2018-12-08T01:07:36.407Z,3.01
2018-12-08T01:13:31.349Z,2.63
2018-12-08T01:19:26.371Z,3.51
2018-12-08T01:25:21.364Z,1.97
2018-12-08T01:31:16.340Z,3.83
2018-12-08T01:37:11.350Z,4.8
2018-12-08T01:43:06.357Z,5.05
2018-12-08T01:49:01.400Z,4.34
2018-12-08T01:54:56.375Z,3.65
2018-12-08T02:00:51.375Z,4.97
2018-12-08T02:06:46.387Z,2.54
2018-12-08T02:12:41.390Z,2.08
2018-12-08T02:18:36.360Z,2.17
2018-12-08T02:24:31.381Z,3.71
2018-12-08T02:30:26.474Z,4.02
2018-12-08T02:36:21.365Z,3.85
2018-12-08T02:42:16.391Z,3.59
2018-12-08T02:48:11.413Z,3.27
2018-12-08T02:54:06.381Z,3.42
2018-12-08T03:00:01.392Z,2.22
2018-12-08T03:05:56.387Z,3.32
2018-12-08T03:11:51.405Z,3.7
2018-12-08T03:17:46.436Z,8.46
2018-12-08T03:23:41.398Z,6.55
2018-12-08T03:29:36.400Z,7.29
2018-12-08T03:35:31.437Z,7.45
2018-12-08T03:41:26.416Z,4.81
2018-12-08T03:47:21.413Z,3.69
2018-12-08T03:53:16.433Z,4.8
2018-12-08T03:59:11.412Z,9.37
2018-12-08T04:05:06.428Z,6.23
2018-12-08T04:11:01.491Z,4.59
2018-12-08T04:16:56.429Z,4.23
2018-12-08T04:22:51.451Z,4.21
2018-12-08T04:28:46.450Z,4.27
2018-12-08T04:34:41.431Z,5.7
2018-12-08T04:40:36.432Z,3.79
2018-12-08T04:46:31.448Z,4.67
2018-12-08T04:52:26.448Z,4.76
2018-12-08T04:58:21.429Z,1.53
2018-12-08T05:04:16.464Z,0.75
2018-12-08T05:10:11.489Z,0.5
2018-12-08T05:16:06.479Z,1.59
2018-12-08T05:22:01.460Z,0.8
2018-12-08T05:27:56.458Z,1.51
2018-12-08T05:33:51.469Z,0.92
2018-12-08T05:39:46.532Z,0.52
2018-12-08T05:45:41.477Z,0.54
2018-12-08T05:51:36.495Z,0.79
2018-12-08T05:57:31.497Z,1.06
2018-12-08T06:03:26.494Z,0.86
2018-12-08T06:09:21.524Z,2.19
2018-12-08T06:15:16.514Z,1.13
2018-12-08T06:21:11.554Z,0.8
2018-12-08T06:27:06.490Z,1.25
2018-12-08T06:33:01.604Z,0.79
2018-12-08T06:38:56.508Z,0.71
2018-12-08T06:44:51.530Z,1
2018-12-08T06:50:46.517Z,1.66
2018-12-08T06:56:41.555Z,2.97
2018-12-08T07:02:36.532Z,2.5
2018-12-08T07:08:31.565Z,1.5
2018-12-08T07:14:26.525Z,0.92
2018-12-08T07:20:21.564Z,1.04
2018-12-08T07:26:16.573Z,1.89
2018-12-08T07:32:11.610Z,1.41
2018-12-08T07:38:06.541Z,1.36
2018-12-08T07:44:01.550Z,1.4
2018-12-08T07:49:56.528Z,1.37
2018-12-08T07:55:51.554Z,2.27
2018-12-08T08:01:46.558Z,3.2
2018-12-08T08:07:41.558Z,4.55
2018-12-08T08:13:36.532Z,3.3
2018-12-08T08:19:31.564Z,4.36
2018-12-08T08:25:26.555Z,3
2018-12-08T08:31:21.551Z,2.98
2018-12-08T08:37:16.572Z,2.13
2018-12-08T08:43:11.567Z,2.83
2018-12-08T08:49:06.624Z,3.72
2018-12-08T08:55:01.566Z,3.31
2018-12-08T09:00:56.578Z,2.53
2018-12-08T09:06:51.670Z,2.69
2018-12-08T09:12:46.620Z,2.7
2018-12-08T09:18:41.609Z,2.24
2018-12-08T09:24:36.627Z,1.48
2018-12-08T09:30:31.595Z,1.54
2018-12-08T09:36:26.593Z,1.7
2018-12-08T09:42:21.576Z,0.7
2018-12-08T09:48:16.632Z,3.18
2018-12-08T09:54:11.606Z,2.07
2018-12-08T10:00:06.599Z,2.04
2018-12-08T10:06:01.612Z,2.67
2018-12-08T10:11:56.625Z,2.13
2018-12-08T10:17:51.612Z,3.24
2018-12-08T10:23:46.629Z,2.02
2018-12-08T10:29:41.620Z,2.36
2018-12-08T10:35:36.643Z,2.11
2018-12-08T10:41:31.712Z,2.67
2018-12-08T10:47:26.630Z,3.26
2018-12-08T10:53:21.630Z,2.74
2018-12-08T10:59:16.637Z,2.1
2018-12-08T11:05:11.643Z,1.96
2018-12-08T11:11:06.650Z,2.27
2018-12-08T11:17:01.670Z,3.31
2018-12-08T11:22:56.669Z,2.72
2018-12-08T11:28:51.640Z,3.2
2018-12-08T11:34:46.655Z,2.61
2018-12-08T11:40:41.663Z,2.77
2018-12-08T11:46:36.670Z,3.04
2018-12-08T11:52:31.659Z,2.53
2018-12-08T11:58:26.676Z,1.99
2018-12-08T12:04:21.703Z,1.7
2018-12-08T12:10:16.806Z,1.68
2018-12-08T12:16:11.699Z,0.98
2018-12-08T12:22:06.705Z,1.17
2018-12-08T12:28:01.727Z,0.83
2018-12-08T12:33:56.683Z,0.77
2018-12-08T12:39:51.690Z,10.06
2018-12-08T12:45:46.707Z,6.13
2018-12-08T12:51:41.694Z,2.34
2018-12-08T12:57:36.685Z,10.86
2018-12-08T13:03:31.695Z,15.2
2018-12-08T13:09:26.701Z,8.36
2018-12-08T13:15:21.753Z,7.89
2018-12-08T13:21:16.719Z,3.1
2018-12-08T13:27:11.766Z,1.5
2018-12-08T13:33:06.719Z,8.24
2018-12-08T13:39:01.728Z,1.33
2018-12-08T13:44:56.724Z,1.16
2018-12-08T13:50:51.763Z,1.05
2018-12-08T13:56:46.757Z,1.08
2018-12-08T14:02:41.725Z,1.19
2018-12-08T14:08:36.726Z,1.79
2018-12-08T14:14:31.764Z,1.2
2018-12-08T14:20:26.742Z,0.93
2018-12-08T14:26:21.748Z,1.11
2018-12-08T14:32:16.748Z,1
2018-12-08T14:38:11.769Z,1.59
2018-12-08T14:44:06.770Z,1.48
2018-12-08T14:50:01.785Z,12.68
2018-12-08T14:55:56.772Z,2.84
2018-12-08T15:01:51.792Z,7.91
2018-12-08T15:07:46.794Z,3.79
2018-12-08T15:13:41.785Z,1.95
2018-12-08T15:19:36.791Z,3.32
2018-12-08T15:25:31.787Z,2.11
2018-12-08T15:31:26.782Z,2.62
2018-12-08T15:37:21.817Z,2.7
2018-12-08T15:43:16.780Z,5.39
2018-12-08T15:49:11.795Z,6.47
2018-12-08T15:55:06.799Z,5.18
2018-12-08T16:01:01.791Z,3.37
2018-12-08T16:06:56.807Z,2.49
2018-12-08T16:12:51.789Z,25.04
2018-12-08T16:18:46.813Z,6.06
2018-12-08T16:24:41.820Z,13.86
2018-12-08T16:30:36.831Z,7.8
2018-12-08T16:36:31.829Z,12.82
2018-12-08T16:42:26.836Z,12.97
2018-12-08T16:48:21.834Z,10.78
2018-12-08T16:54:16.817Z,6.16
2018-12-08T17:00:11.839Z,6.25
2018-12-08T17:06:06.837Z,9.27
2018-12-08T17:12:01.853Z,7.97
2018-12-08T17:17:56.868Z,7.06
2018-12-08T17:23:51.847Z,15.47
2018-12-08T17:29:46.863Z,16.2
2018-12-08T17:35:41.848Z,10.92
2018-12-08T17:41:36.851Z,16.97
2018-12-08T17:47:31.922Z,32.17
2018-12-08T17:53:26.879Z,23.77
2018-12-08T17:59:21.879Z,19.84
2018-12-08T18:05:16.918Z,7.52
2018-12-08T18:11:11.871Z,3.84
2018-12-08T18:17:06.864Z,3.33
2018-12-08T18:23:01.885Z,6.51
2018-12-08T18:28:56.933Z,21.03
2018-12-08T18:34:51.889Z,23.89
2018-12-08T18:40:46.890Z,22.36
2018-12-08T18:46:41.909Z,12.32
2018-12-08T18:52:36.958Z,13.95
2018-12-08T18:58:31.992Z,19.05
2018-12-08T19:04:26.892Z,20.59
2018-12-08T19:10:21.900Z,22.25
2018-12-08T19:16:16.934Z,29.09
2018-12-08T19:22:11.925Z,21.3
2018-12-08T19:28:06.920Z,21.64
2018-12-08T19:34:01.921Z,24.49
2018-12-08T19:39:56.908Z,19.2
2018-12-08T19:45:51.906Z,21.31
2018-12-08T19:51:46.915Z,10.52
2018-12-08T19:57:41.996Z,5.61
2018-12-08T20:03:36.923Z,7.61
2018-12-08T20:09:31.940Z,19.87
2018-12-08T20:15:26.969Z,12.49
2018-12-08T20:21:21.942Z,14.18
2018-12-08T20:27:16.931Z,15.5
2018-12-08T20:33:11.948Z,13.28
2018-12-08T20:39:06.979Z,9.13
2018-12-08T20:45:02.070Z,8.77
2018-12-08T20:50:56.989Z,11.06
2018-12-08T20:56:51.954Z,9.61
2018-12-08T21:02:46.980Z,9.1
2018-12-08T21:08:41.972Z,9.46
2018-12-08T21:14:36.947Z,12.62
2018-12-08T21:20:31.982Z,21.35
2018-12-08T21:26:27.014Z,20.59
2018-12-08T21:32:22.006Z,14.36
2018-12-08T21:38:16.997Z,16.03
2018-12-08T21:44:12.004Z,17.25
2018-12-08T21:50:07.018Z,16.03
2018-12-08T21:56:02.008Z,15.6
2018-12-08T22:01:57.001Z,12.05
2018-12-08T22:07:51.997Z,9.74
2018-12-08T22:13:46.995Z,9.47
2018-12-08T22:19:41.997Z,9.35
2018-12-08T22:25:36.984Z,10.72
2018-12-08T22:31:32.018Z,7.23
2018-12-08T22:37:29.057Z,6.23
2018-12-08T22:43:22.009Z,5.3
2018-12-08T22:49:17.014Z,5.98
2018-12-08T22:55:12.020Z,8.27
2018-12-08T23:01:07.026Z,9.79
2018-12-08T23:07:02.031Z,9.23
2018-12-08T23:12:57.014Z,10.23
2018-12-08T23:18:52.029Z,9.46
2018-12-08T23:24:47.021Z,10.29
2018-12-08T23:30:42.033Z,11.4
2018-12-08T23:36:37.060Z,10.18
2018-12-08T23:42:32.035Z,9.09
2018-12-08T23:48:27.068Z,7.17
2018-12-08T23:54:22.108Z,30.22
